Flight Track Log - Related Links

Times and Time Zones

All times are in EDT time to prevent confusion due to time zone crossing. See the USC2401 flight status page for this flight to view local times or setup timezone preferences in your user account.

Time Position Orientation Groundspeed Altitude Reporting Facility
EDT Latitude Longitude Course Direction KTS MPH feet Rate Location/Type
Wed 09:13:26 PM 40.8667 -74.0500 360° North 102 117 1,100  Level New York TRACON
Wed 09:14:26 PM 40.8833 -74.0500 323° Northwest 120 138 2,400 1,316 Climbing New York TRACON
Wed 09:15:20 PM 40.9167 -74.0833 304° West 102 117 3,600 1,150 Climbing New York TRACON
Wed 09:16:26 PM 40.9333 -74.1167 323° Northwest 115 132 4,700 857 Climbing New York TRACON
Wed 09:17:26 PM 40.9500 -74.1333 360° North 118 136 5,400 700 Climbing New York TRACON
Wed 09:18:26 PM 40.9833 -74.1333 17° North 125 144 6,100 233 Climbing New York TRACON
Wed 09:20:26 PM 41.0667 -74.1000 66° East 178 205 6,100 233 Level New York TRACON
Wed 09:21:26 PM 41.0833 -74.0500 66° East 153 176 6,800 400 Climbing New York TRACON
Wed 09:22:26 PM 41.1000 -74.0000 48° Northeast 168 193 6,900 100 Climbing New York TRACON
Wed 09:23:26 PM 41.1333 -73.9500 72° East 174 200 7,000 50 Climbing New York TRACON
Wed 09:24:26 PM 41.1500 -73.8833 56° Northeast 179 206 7,000  Level New York TRACON
Wed 09:27:26 PM 41.2333 -73.7167 72° East 178 205 7,000  Level New York TRACON
Wed 09:28:26 PM 41.2500 -73.6500 60° Northeast 180 207 7,000  Level New York TRACON
Wed 09:30:26 PM 41.3000 -73.5333 69° East 185 213 7,000  Level New York TRACON
Wed 09:32:26 PM 41.3333 -73.4167 64° Northeast 181 208 7,000  Level New York TRACON
Wed 09:34:09 PM 41.3694 -73.3169 66° East 182 209 7,000 -41 Level Boston Center
Wed 09:34:52 PM 41.3844 -73.2728 57° Northeast 179 206 6,900 -55 Descending Boston Center
Wed 09:35:58 PM 41.4142 -73.2125 53° Northeast 179 206 6,900 47 Level Boston Center
Wed 09:36:59 PM 41.4436 -73.1600 46° Northeast 173 199 7,000 52 Climbing Boston Center
Wed 09:37:54 PM 41.4750 -73.1161 49° Northeast 177 204 7,000  Level Boston Center
Wed 09:39:00 PM 41.5108 -73.0611 48° Northeast 178 205 7,000  Level Boston Center
Wed 09:40:01 PM 41.5425 -73.0142 48° Northeast 180 207 7,000 -49 Level Boston Center
Wed 09:41:02 PM 41.5781 -72.9617 49° Northeast 181 208 6,900 -50 Descending Boston Center
Wed 09:42:02 PM 41.6117 -72.9094 48° Northeast 181 208 6,900 47 Level Boston Center
Wed 09:43:09 PM 41.6494 -72.8539 49° Northeast 181 208 7,000 50 Climbing Boston Center
Wed 09:44:03 PM 41.6786 -72.8097 51° Northeast 178 205 7,000 -52 Level Boston Center
Wed 09:45:04 PM 41.7100 -72.7572 48° Northeast 177 204 6,900  Descending Boston Center
Wed 09:46:05 PM 41.7436 -72.7072 50° Northeast 178 205 7,000  Climbing Boston Center
Wed 09:47:05 PM 41.7750 -72.6572 48° Northeast 182 209 6,900  Descending Boston Center
Wed 09:48:06 PM 41.8083 -72.6072 49° Northeast 179 206 7,000 47 Climbing Boston Center
Wed 09:49:13 PM 41.8439 -72.5517 50° Northeast 177 204 7,000 -50 Level Boston Center
Wed 09:50:07 PM 41.8731 -72.5042 49° Northeast 175 201 6,900 -50 Descending Boston Center
Wed 09:51:14 PM 41.9086 -72.4486 51° Northeast 174 200 6,900  Level Boston Center
Wed 09:52:08 PM 41.9356 -72.4039 50° Northeast 174 200 6,900  Level Boston Center
Wed 09:53:09 PM 41.9689 -72.3508 48° Northeast 177 204 6,900  Level Boston Center
Wed 09:54:10 PM 42.0022 -72.3003 49° Northeast 179 206 6,900  Level Boston Center
Wed 09:55:04 PM 42.0292 -72.2583 51° Northeast 175 201 6,900 -104 Level Boston Center
Wed 09:56:05 PM 42.0625 -72.2025 50° Northeast 181 208 6,700 -545 Descending Boston Center
Wed 09:57:05 PM 42.0978 -72.1464 49° Northeast 205 236 5,800 -850 Descending Boston Center
Wed 09:58:12 PM 42.1353 -72.0872 43° Northeast 197 227 4,900 -443 Descending Boston Center
Wed 09:59:07 PM 42.1706 -72.0422 49° Northeast 187 215 4,900  Level Boston Center
Wed 10:00:07 PM 42.2036 -71.9917 47° Northeast 182 209 4,900 35 Level Boston Center
Wed 10:01:59 PM 42.2667 -71.9000 48° Northeast 183 211 5,000 35 Climbing Boston TRACON
Wed 10:02:59 PM 42.3000 -71.8500 48° Northeast 181 208 5,000  Level Boston TRACON
Wed 10:03:59 PM 42.3333 -71.8000 48° Northeast 179 206 5,000  Level Boston TRACON
Wed 10:04:59 PM 42.3667 -71.7500 36° Northeast 170 196 5,000 -300 Level Boston TRACON
Wed 10:05:59 PM 42.4000 -71.7167 14° North 170 196 4,400 -500 Descending Boston TRACON
Wed 10:06:59 PM 42.4500 -71.7000 360° North 157 181 4,000 -200 Descending Boston TRACON
Wed 10:07:59 PM 42.4833 -71.7000 14° North 149 171 4,000 -50 Level Boston TRACON
Wed 10:08:59 PM 42.5333 -71.6833 124° Southeast 149 171 3,900 -300 Descending Boston TRACON
Wed 10:09:59 PM 42.5000 -71.6167 90° East 184 212 3,400 -500 Descending Boston TRACON
Wed 10:10:59 PM 42.5000 -71.5667 109° East 159 183 2,900 -250 Descending Boston TRACON
Wed 10:11:59 PM 42.4833 -71.5000 90° East 169 194 2,900 -350 Level Boston TRACON
Wed 10:12:59 PM 42.4833 -71.4333 90° East 174 200 2,200 -773 Descending Boston TRACON
Wed 10:14:11 PM 42.4833 -71.3667 90° East 134 154 1,200 -700 Descending Boston TRACON
Wed 10:14:59 PM 42.4833 -71.3333 90° East 117 135 800 -500 Descending Boston TRACON

Login

Don't have an account? Register now (free) for customized features, flight alerts, and more!